sensor_id;sensor_type;location;lat;lon;timestamp;pressure;altitude;pressure_sealevel;temperature
57468;BMP280;43311;51.196;7.518;2024-01-11T00:01:59;98126.66;;;-6.13
57468;BMP280;43311;51.196;7.518;2024-01-11T00:04:24;98086.66;;;-6.27
57468;BMP280;43311;51.196;7.518;2024-01-11T00:06:50;98090.69;;;-6.26
57468;BMP280;43311;51.196;7.518;2024-01-11T00:09:16;98105.00;;;-6.30
57468;BMP280;43311;51.196;7.518;2024-01-11T00:11:41;98127.19;;;-6.26
57468;BMP280;43311;51.196;7.518;2024-01-11T00:14:07;98082.91;;;-6.55
57468;BMP280;43311;51.196;7.518;2024-01-11T00:16:32;98123.66;;;-6.35
57468;BMP280;43311;51.196;7.518;2024-01-11T00:18:58;98098.97;;;-6.54
57468;BMP280;43311;51.196;7.518;2024-01-11T00:21:23;98109.44;;;-6.56
57468;BMP280;43311;51.196;7.518;2024-01-11T00:23:49;98131.56;;;-6.36
57468;BMP280;43311;51.196;7.518;2024-01-11T00:26:14;98118.81;;;-6.36
57468;BMP280;43311;51.196;7.518;2024-01-11T00:28:40;98090.81;;;-6.51
57468;BMP280;43311;51.196;7.518;2024-01-11T00:31:05;98110.44;;;-6.42
57468;BMP280;43311;51.196;7.518;2024-01-11T00:33:31;98097.44;;;-6.45
57468;BMP280;43311;51.196;7.518;2024-01-11T00:35:56;98104.00;;;-6.29
57468;BMP280;43311;51.196;7.518;2024-01-11T00:38:21;98084.59;;;-6.30
57468;BMP280;43311;51.196;7.518;2024-01-11T00:40:47;98082.03;;;-6.25
57468;BMP280;43311;51.196;7.518;2024-01-11T00:43:12;98093.44;;;-6.08
57468;BMP280;43311;51.196;7.518;2024-01-11T00:45:38;98065.22;;;-6.36
57468;BMP280;43311;51.196;7.518;2024-01-11T00:48:04;98063.97;;;-6.39
57468;BMP280;43311;51.196;7.518;2024-01-11T00:50:29;98090.78;;;-6.46
57468;BMP280;43311;51.196;7.518;2024-01-11T00:52:55;98086.47;;;-6.51
57468;BMP280;43311;51.196;7.518;2024-01-11T00:55:20;98079.16;;;-6.67
57468;BMP280;43311;51.196;7.518;2024-01-11T00:57:46;98068.94;;;-6.62
57468;BMP280;43311;51.196;7.518;2024-01-11T01:00:11;98074.28;;;-6.59
57468;BMP280;43311;51.196;7.518;2024-01-11T01:02:40;98085.19;;;-6.48
57468;BMP280;43311;51.196;7.518;2024-01-11T01:05:06;98107.59;;;-6.35
57468;BMP280;43311;51.196;7.518;2024-01-11T05:23:48;98126.34;;;-6.84
57468;BMP280;43311;51.196;7.518;2024-01-11T05:26:15;98136.53;;;-6.84
57468;BMP280;43311;51.196;7.518;2024-01-11T05:28:41;98138.09;;;-6.88
57468;BMP280;43311;51.196;7.518;2024-01-11T05:31:11;98144.69;;;-6.73
57468;BMP280;43311;51.196;7.518;2024-01-11T05:33:37;98157.13;;;-6.46
57468;BMP280;43311;51.196;7.518;2024-01-11T05:36:03;98145.38;;;-6.47
57468;BMP280;43311;51.196;7.518;2024-01-11T05:38:28;98147.47;;;-6.59
57468;BMP280;43311;51.196;7.518;2024-01-11T05:40:54;98151.81;;;-6.65
57468;BMP280;43311;51.196;7.518;2024-01-11T05:43:19;98161.69;;;-6.43
57468;BMP280;43311;51.196;7.518;2024-01-11T05:45:44;98166.22;;;-6.20
57468;BMP280;43311;51.196;7.518;2024-01-11T05:48:10;98170.53;;;-6.16
57468;BMP280;43311;51.196;7.518;2024-01-11T05:50:36;98167.78;;;-6.29
57468;BMP280;43311;51.196;7.518;2024-01-11T05:53:01;98177.00;;;-6.33
57468;BMP280;43311;51.196;7.518;2024-01-11T05:55:26;98164.00;;;-6.52
57468;BMP280;43311;51.196;7.518;2024-01-11T05:57:52;98190.28;;;-6.46
57468;BMP280;43311;51.196;7.518;2024-01-11T06:00:17;98188.22;;;-6.34
57468;BMP280;43311;51.196;7.518;2024-01-11T06:02:43;98182.09;;;-6.33
57468;BMP280;43311;51.196;7.518;2024-01-11T06:05:08;98177.25;;;-6.40
57468;BMP280;43311;51.196;7.518;2024-01-11T06:07:35;98178.50;;;-6.27
57468;BMP280;43311;51.196;7.518;2024-01-11T06:10:00;98179.78;;;-6.25
57468;BMP280;43311;51.196;7.518;2024-01-11T06:12:28;98186.63;;;-6.20
57468;BMP280;43311;51.196;7.518;2024-01-11T06:14:54;98169.84;;;-6.36
57468;BMP280;43311;51.196;7.518;2024-01-11T06:17:19;98160.69;;;-6.42
57468;BMP280;43311;51.196;7.518;2024-01-11T06:19:44;98162.22;;;-6.46
57468;BMP280;43311;51.196;7.518;2024-01-11T06:22:10;98160.97;;;-6.49
57468;BMP280;43311;51.196;7.518;2024-01-11T06:24:35;98178.00;;;-6.29
57468;BMP280;43311;51.196;7.518;2024-01-11T06:27:00;98162.38;;;-6.13
57468;BMP280;43311;51.196;7.518;2024-01-11T06:29:26;98169.41;;;-5.85
57468;BMP280;43311;51.196;7.518;2024-01-11T06:31:51;98176.94;;;-5.70
57468;BMP280;43311;51.196;7.518;2024-01-11T06:34:17;98170.91;;;-5.79
57468;BMP280;43311;51.196;7.518;2024-01-11T06:36:42;98158.66;;;-5.82
57468;BMP280;43311;51.196;7.518;2024-01-11T06:39:08;98182.38;;;-5.77
57468;BMP280;43311;51.196;7.518;2024-01-11T06:41:35;98154.94;;;-6.05
57468;BMP280;43311;51.196;7.518;2024-01-11T06:44:00;98164.06;;;-5.99
57468;BMP280;43311;51.196;7.518;2024-01-11T06:46:25;98171.75;;;-6.04
57468;BMP280;43311;51.196;7.518;2024-01-11T06:48:51;98144.81;;;-6.24
57468;BMP280;43311;51.196;7.518;2024-01-11T06:51:20;98160.03;;;-6.09
57468;BMP280;43311;51.196;7.518;2024-01-11T06:53:46;98143.28;;;-6.25
57468;BMP280;43311;51.196;7.518;2024-01-11T06:56:15;98174.91;;;-6.16
57468;BMP280;43311;51.196;7.518;2024-01-11T06:58:43;98162.44;;;-6.33
57468;BMP280;43311;51.196;7.518;2024-01-11T07:01:09;98170.84;;;-6.32
57468;BMP280;43311;51.196;7.518;2024-01-11T07:03:34;98148.72;;;-6.47
57468;BMP280;43311;51.196;7.518;2024-01-11T07:05:59;98163.00;;;-6.51
57468;BMP280;43311;51.196;7.518;2024-01-11T07:08:25;98165.53;;;-6.36
57468;BMP280;43311;51.196;7.518;2024-01-11T07:10:50;98173.53;;;-5.99
57468;BMP280;43311;51.196;7.518;2024-01-11T07:13:16;98181.19;;;-5.99
57468;BMP280;43311;51.196;7.518;2024-01-11T07:15:42;98194.25;;;-6.06
57468;BMP280;43311;51.196;7.518;2024-01-11T07:18:08;98182.34;;;-6.30
57468;BMP280;43311;51.196;7.518;2024-01-11T07:20:34;98183.59;;;-6.32
57468;BMP280;43311;51.196;7.518;2024-01-11T07:22:59;98195.88;;;-6.34
57468;BMP280;43311;51.196;7.518;2024-01-11T07:25:25;98200.97;;;-6.34
57468;BMP280;43311;51.196;7.518;2024-01-11T07:27:50;98194.13;;;-6.54
57468;BMP280;43311;51.196;7.518;2024-01-11T07:30:17;98232.88;;;-6.32
57468;BMP280;43311;51.196;7.518;2024-01-11T07:32:44;98216.31;;;-6.44
57468;BMP280;43311;51.196;7.518;2024-01-11T07:35:09;98233.13;;;-6.33
57468;BMP280;43311;51.196;7.518;2024-01-11T07:37:36;98237.47;;;-6.34
57468;BMP280;43311;51.196;7.518;2024-01-11T07:40:02;98228.78;;;-6.38
57468;BMP280;43311;51.196;7.518;2024-01-11T07:42:27;98231.59;;;-6.34
57468;BMP280;43311;51.196;7.518;2024-01-11T07:44:53;98210.13;;;-6.18
57468;BMP280;43311;51.196;7.518;2024-01-11T07:47:18;98216.75;;;-6.12
57468;BMP280;43311;51.196;7.518;2024-01-11T07:49:44;98214.19;;;-6.17
57468;BMP280;43311;51.196;7.518;2024-01-11T07:52:09;98206.56;;;-6.22
57468;BMP280;43311;51.196;7.518;2024-01-11T07:54:35;98223.84;;;-6.09
57468;BMP280;43311;51.196;7.518;2024-01-11T07:57:00;98229.47;;;-6.03
57468;BMP280;43311;51.196;7.518;2024-01-11T07:59:32;98202.69;;;-6.10
57468;BMP280;43311;51.196;7.518;2024-01-11T08:01:57;98223.81;;;-5.90
57468;BMP280;43311;51.196;7.518;2024-01-11T08:04:23;98210.47;;;-5.77
57468;BMP280;43311;51.196;7.518;2024-01-11T08:06:48;98214.22;;;-5.64
57468;BMP280;43311;51.196;7.518;2024-01-11T08:09:13;98229.19;;;-5.43
57468;BMP280;43311;51.196;7.518;2024-01-11T08:11:39;98223.94;;;-5.23
57468;BMP280;43311;51.196;7.518;2024-01-11T08:14:06;98210.28;;;-5.09
57468;BMP280;43311;51.196;7.518;2024-01-11T08:16:31;98222.75;;;-4.97
57468;BMP280;43311;51.196;7.518;2024-01-11T08:18:57;98238.47;;;-4.80
57468;BMP280;43311;51.196;7.518;2024-01-11T08:21:22;98224.56;;;-4.70
57468;BMP280;43311;51.196;7.518;2024-01-11T08:23:47;98237.19;;;-4.26
57468;BMP280;43311;51.196;7.518;2024-01-11T08:26:14;98223.84;;;-4.00
57468;BMP280;43311;51.196;7.518;2024-01-11T08:28:39;98212.63;;;-4.04
57468;BMP280;43311;51.196;7.518;2024-01-11T08:31:06;98228.44;;;-3.97
57468;BMP280;43311;51.196;7.518;2024-01-11T08:33:31;98201.66;;;-4.05
57468;BMP280;43311;51.196;7.518;2024-01-11T08:35:57;98213.84;;;-3.97
57468;BMP280;43311;51.196;7.518;2024-01-11T08:38:23;98209.97;;;-3.94
57468;BMP280;43311;51.196;7.518;2024-01-11T08:40:49;98204.59;;;-3.93
57468;BMP280;43311;51.196;7.518;2024-01-11T08:43:15;98229.59;;;-3.66
57468;BMP280;43311;51.196;7.518;2024-01-11T08:45:40;98229.84;;;-3.44
57468;BMP280;43311;51.196;7.518;2024-01-11T08:48:06;98230.13;;;-3.28
57468;BMP280;43311;51.196;7.518;2024-01-11T08:50:31;98227.63;;;-3.14
57468;BMP280;43311;51.196;7.518;2024-01-11T08:52:58;98231.84;;;-3.05
57468;BMP280;43311;51.196;7.518;2024-01-11T08:55:23;98241.47;;;-2.97
57468;BMP280;43311;51.196;7.518;2024-01-11T08:57:49;98236.84;;;-2.95
57468;BMP280;43311;51.196;7.518;2024-01-11T09:00:14;98229.88;;;-2.94
57468;BMP280;43311;51.196;7.518;2024-01-11T09:02:44;98262.50;;;-2.63
57468;BMP280;43311;51.196;7.518;2024-01-11T09:05:09;98244.72;;;-2.73
57468;BMP280;43311;51.196;7.518;2024-01-11T09:07:34;98241.81;;;-2.85
57468;BMP280;43311;51.196;7.518;2024-01-11T09:10:00;98264.66;;;-2.70
57468;BMP280;43311;51.196;7.518;2024-01-11T09:12:25;98250.81;;;-2.69
57468;BMP280;43311;51.196;7.518;2024-01-11T09:14:50;98256.84;;;-2.60
57468;BMP280;43311;51.196;7.518;2024-01-11T09:17:16;98265.09;;;-2.63
57468;BMP280;43311;51.196;7.518;2024-01-11T09:19:41;98250.56;;;-2.86
57468;BMP280;43311;51.196;7.518;2024-01-11T09:22:07;98259.69;;;-2.80
57468;BMP280;43311;51.196;7.518;2024-01-11T09:24:35;98263.66;;;-2.37
57468;BMP280;43311;51.196;7.518;2024-01-11T09:27:01;98254.53;;;-2.30
57468;BMP280;43311;51.196;7.518;2024-01-11T09:29:26;98268.44;;;-2.17
57468;BMP280;43311;51.196;7.518;2024-01-11T09:31:53;98267.47;;;-2.21
57468;BMP280;43311;51.196;7.518;2024-01-11T09:34:18;98286.53;;;-1.82
57468;BMP280;43311;51.196;7.518;2024-01-11T09:36:44;98258.16;;;-1.91
57468;BMP280;43311;51.196;7.518;2024-01-11T09:39:10;98292.06;;;-1.75
57468;BMP280;43311;51.196;7.518;2024-01-11T09:41:41;98268.44;;;-1.91
57468;BMP280;43311;51.196;7.518;2024-01-11T09:44:08;98264.63;;;-1.80
57468;BMP280;43311;51.196;7.518;2024-01-11T09:46:34;98300.81;;;-1.63
57468;BMP280;43311;51.196;7.518;2024-01-11T09:49:00;98285.38;;;-1.49
57468;BMP280;43311;51.196;7.518;2024-01-11T09:51:29;98275.75;;;-1.44
57468;BMP280;43311;51.196;7.518;2024-01-11T09:53:55;98276.59;;;-1.35
57468;BMP280;43311;51.196;7.518;2024-01-11T09:56:24;98279.47;;;-1.50
57468;BMP280;43311;51.196;7.518;2024-01-11T09:58:52;98279.28;;;-1.40
57468;BMP280;43311;51.196;7.518;2024-01-11T10:01:18;98272.59;;;-1.41
57468;BMP280;43311;51.196;7.518;2024-01-11T10:03:44;98295.28;;;-1.30
57468;BMP280;43311;51.196;7.518;2024-01-11T10:06:12;98287.34;;;-1.20
57468;BMP280;43311;51.196;7.518;2024-01-11T10:08:37;98272.75;;;-1.24
57468;BMP280;43311;51.196;7.518;2024-01-11T10:11:03;98284.97;;;-1.16
57468;BMP280;43311;51.196;7.518;2024-01-11T10:13:30;98268.34;;;-1.10
57468;BMP280;43311;51.196;7.518;2024-01-11T10:16:09;98273.50;;;-1.10
57468;BMP280;43311;51.196;7.518;2024-01-11T10:18:35;98272.03;;;-1.03
57468;BMP280;43311;51.196;7.518;2024-01-11T10:21:02;98255.16;;;-0.95
57468;BMP280;43311;51.196;7.518;2024-01-11T10:23:28;98273.22;;;-0.73
57468;BMP280;43311;51.196;7.518;2024-01-11T10:25:56;98278.69;;;-0.67
57468;BMP280;43311;51.196;7.518;2024-01-11T10:28:49;98260.22;;;-0.68
57468;BMP280;43311;51.196;7.518;2024-01-11T10:32:57;98255.97;;;-0.65
57468;BMP280;43311;51.196;7.518;2024-01-11T10:36:43;98256.78;;;-0.56
57468;BMP280;43311;51.196;7.518;2024-01-11T10:39:13;98274.59;;;-0.46
57468;BMP280;43311;51.196;7.518;2024-01-11T10:41:47;98293.84;;;-0.21
57468;BMP280;43311;51.196;7.518;2024-01-11T10:45:21;98279.91;;;-0.42
57468;BMP280;43311;51.196;7.518;2024-01-11T10:48:00;98287.34;;;-0.41
57468;BMP280;43311;51.196;7.518;2024-01-11T10:50:58;98312.22;;;-0.36
57468;BMP280;43311;51.196;7.518;2024-01-11T10:54:42;98311.59;;;-0.42
57468;BMP280;43311;51.196;7.518;2024-01-11T10:57:29;98317.00;;;-0.30
57468;BMP280;43311;51.196;7.518;2024-01-11T11:00:19;98317.44;;;-0.28
57468;BMP280;43311;51.196;7.518;2024-01-11T11:08:01;98308.25;;;0.10
57468;BMP280;43311;51.196;7.518;2024-01-11T12:00:20;98251.06;;;0.97
57468;BMP280;43311;51.196;7.518;2024-01-11T12:02:50;98269.31;;;1.09
57468;BMP280;43311;51.196;7.518;2024-01-11T12:05:17;98261.41;;;1.14
57468;BMP280;43311;51.196;7.518;2024-01-11T12:07:44;98273.41;;;1.35
57468;BMP280;43311;51.196;7.518;2024-01-11T12:10:10;98261.09;;;1.41
57468;BMP280;43311;51.196;7.518;2024-01-11T12:12:36;98191.22;;;1.04
57468;BMP280;43311;51.196;7.518;2024-01-11T12:15:07;98244.06;;;1.40
57468;BMP280;43311;51.196;7.518;2024-01-11T12:17:33;98250.84;;;1.61
57468;BMP280;43311;51.196;7.518;2024-01-11T12:19:58;98251.28;;;1.72
57468;BMP280;43311;51.196;7.518;2024-01-11T12:22:24;98241.88;;;1.59
57468;BMP280;43311;51.196;7.518;2024-01-11T12:24:49;98240.06;;;1.59
57468;BMP280;43311;51.196;7.518;2024-01-11T12:27:15;98243.53;;;1.72
57468;BMP280;43311;51.196;7.518;2024-01-11T12:29:40;98251.13;;;1.77
57468;BMP280;43311;51.196;7.518;2024-01-11T12:32:07;98241.72;;;1.72
57468;BMP280;43311;51.196;7.518;2024-01-11T12:34:36;98253.94;;;2.01
57468;BMP280;43311;51.196;7.518;2024-01-11T12:37:02;98248.91;;;2.04
57468;BMP280;43311;51.196;7.518;2024-01-11T12:39:30;98254.56;;;1.98
57468;BMP280;43311;51.196;7.518;2024-01-11T12:41:56;98276.16;;;2.02
57468;BMP280;43311;51.196;7.518;2024-01-11T12:44:23;98260.19;;;1.91
57468;BMP280;43311;51.196;7.518;2024-01-11T12:46:49;98253.63;;;2.02
57468;BMP280;43311;51.196;7.518;2024-01-11T12:49:15;98263.94;;;2.10
57468;BMP280;43311;51.196;7.518;2024-01-11T12:51:41;98276.66;;;2.24
57468;BMP280;43311;51.196;7.518;2024-01-11T12:54:13;98282.56;;;2.33
57468;BMP280;43311;51.196;7.518;2024-01-11T12:56:45;98252.63;;;2.23
57468;BMP280;43311;51.196;7.518;2024-01-11T12:59:10;98264.91;;;2.26
57468;BMP280;43311;51.196;7.518;2024-01-11T13:01:38;98283.44;;;2.37
57468;BMP280;43311;51.196;7.518;2024-01-11T13:04:03;98262.41;;;2.09
57468;BMP280;43311;51.196;7.518;2024-01-11T13:06:32;98292.66;;;2.17
57468;BMP280;43311;51.196;7.518;2024-01-11T13:09:00;98279.81;;;2.01
57468;BMP280;43311;51.196;7.518;2024-01-11T13:11:26;98284.47;;;2.07
57468;BMP280;43311;51.196;7.518;2024-01-11T13:13:53;98275.13;;;1.94
57468;BMP280;43311;51.196;7.518;2024-01-11T13:16:18;98274.81;;;1.87
57468;BMP280;43311;51.196;7.518;2024-01-11T13:18:47;98282.91;;;1.86
57468;BMP280;43311;51.196;7.518;2024-01-11T13:21:12;98278.81;;;1.76
57468;BMP280;43311;51.196;7.518;2024-01-11T13:23:38;98269.84;;;1.74
57468;BMP280;43311;51.196;7.518;2024-01-11T13:26:05;98268.19;;;1.69
57468;BMP280;43311;51.196;7.518;2024-01-11T13:28:31;98271.25;;;1.63
57468;BMP280;43311;51.196;7.518;2024-01-11T13:30:56;98246.47;;;1.45
57468;BMP280;43311;51.196;7.518;2024-01-11T13:33:22;98268.34;;;1.56
57468;BMP280;43311;51.196;7.518;2024-01-11T13:35:49;98223.44;;;1.15
57468;BMP280;43311;51.196;7.518;2024-01-11T13:38:15;98273.84;;;1.46
57468;BMP280;43311;51.196;7.518;2024-01-11T13:40:40;98240.44;;;1.24
57468;BMP280;43311;51.196;7.518;2024-01-11T13:43:08;98250.16;;;1.10
57468;BMP280;43311;51.196;7.518;2024-01-11T13:45:38;98264.13;;;1.26
57468;BMP280;43311;51.196;7.518;2024-01-11T13:48:03;98257.91;;;1.19
57468;BMP280;43311;51.196;7.518;2024-01-11T13:50:29;98226.59;;;0.86
57468;BMP280;43311;51.196;7.518;2024-01-11T13:52:55;98249.69;;;0.91
57468;BMP280;43311;51.196;7.518;2024-01-11T13:55:20;98278.25;;;1.03
57468;BMP280;43311;51.196;7.518;2024-01-11T13:57:47;98240.88;;;0.84
57468;BMP280;43311;51.196;7.518;2024-01-11T14:00:13;98270.06;;;0.93
57468;BMP280;43311;51.196;7.518;2024-01-11T14:02:40;98263.53;;;0.78
57468;BMP280;43311;51.196;7.518;2024-01-11T14:05:07;98268.97;;;0.77
57468;BMP280;43311;51.196;7.518;2024-01-11T14:07:35;98271.28;;;0.78
57468;BMP280;43311;51.196;7.518;2024-01-11T14:10:00;98237.97;;;0.52
57468;BMP280;43311;51.196;7.518;2024-01-11T14:12:26;98234.44;;;0.39
57468;BMP280;43311;51.196;7.518;2024-01-11T14:14:54;98243.91;;;0.52
57468;BMP280;43311;51.196;7.518;2024-01-11T14:17:20;98234.44;;;0.39
57468;BMP280;43311;51.196;7.518;2024-01-11T14:19:45;98269.88;;;0.56
57468;BMP280;43311;51.196;7.518;2024-01-11T14:22:10;98247.81;;;0.41
57468;BMP280;43311;51.196;7.518;2024-01-11T14:24:36;98209.22;;;0.19
57468;BMP280;43311;51.196;7.518;2024-01-11T14:27:01;98232.00;;;0.34
57468;BMP280;43311;51.196;7.518;2024-01-11T14:29:27;98214.50;;;0.14
57468;BMP280;43311;51.196;7.518;2024-01-11T14:31:52;98203.91;;;0.16
57468;BMP280;43311;51.196;7.518;2024-01-11T14:34:17;98218.56;;;0.07
57468;BMP280;43311;51.196;7.518;2024-01-11T14:36:43;98230.13;;;0.18
57468;BMP280;43311;51.196;7.518;2024-01-11T14:39:08;98215.69;;;0.00
57468;BMP280;43311;51.196;7.518;2024-01-11T14:41:35;98237.25;;;0.12
57468;BMP280;43311;51.196;7.518;2024-01-11T14:44:02;98205.91;;;-0.20
57468;BMP280;43311;51.196;7.518;2024-01-11T14:46:29;98234.31;;;-0.03
57468;BMP280;43311;51.196;7.518;2024-01-11T14:48:55;98249.78;;;-0.03
57468;BMP280;43311;51.196;7.518;2024-01-11T14:51:20;98227.88;;;-0.22
57468;BMP280;43311;51.196;7.518;2024-01-11T14:53:46;98246.44;;;-0.12
57468;BMP280;43311;51.196;7.518;2024-01-11T14:56:11;98189.81;;;-0.56
57468;BMP280;43311;51.196;7.518;2024-01-11T14:58:43;98240.00;;;-0.23
57468;BMP280;43311;51.196;7.518;2024-01-11T15:01:09;98202.13;;;-0.53
57468;BMP280;43311;51.196;7.518;2024-01-11T15:03:34;98219.47;;;-0.36
57468;BMP280;43311;51.196;7.518;2024-01-11T15:06:00;98242.38;;;-0.35
57468;BMP280;43311;51.196;7.518;2024-01-11T15:08:55;98240.19;;;-0.41
57468;BMP280;43311;51.196;7.518;2024-01-11T15:11:22;98226.19;;;-0.57
57468;BMP280;43311;51.196;7.518;2024-01-11T15:13:51;98224.31;;;-0.65
57468;BMP280;43311;51.196;7.518;2024-01-11T15:16:17;98189.91;;;-0.91
57468;BMP280;43311;51.196;7.518;2024-01-11T15:18:42;98251.31;;;-0.63
57468;BMP280;43311;51.196;7.518;2024-01-11T15:21:08;98256.78;;;-0.56
57468;BMP280;43311;51.196;7.518;2024-01-11T15:23:45;98213.50;;;-0.97
57468;BMP280;43311;51.196;7.518;2024-01-11T15:26:11;98249.44;;;-0.92
57468;BMP280;43311;51.196;7.518;2024-01-11T15:29:27;98265.47;;;-0.73
57468;BMP280;43311;51.196;7.518;2024-01-11T15:33:25;98245.16;;;-0.97
57468;BMP280;43311;51.196;7.518;2024-01-11T15:36:43;98292.53;;;-0.76
57468;BMP280;43311;51.196;7.518;2024-01-11T15:40:35;98256.94;;;-1.18
57468;BMP280;43311;51.196;7.518;2024-01-11T15:43:58;98268.97;;;-1.40
57468;BMP280;43311;51.196;7.518;2024-01-11T17:02:19;98278.94;;;-2.96
57468;BMP280;43311;51.196;7.518;2024-01-11T17:04:45;98284.88;;;-3.00
57468;BMP280;43311;51.196;7.518;2024-01-11T17:07:48;98300.91;;;-2.90
57468;BMP280;43311;51.196;7.518;2024-01-11T17:15:15;98298.06;;;-2.88
57468;BMP280;43311;51.196;7.518;2024-01-11T17:17:41;98308.19;;;-2.97
57468;BMP280;43311;51.196;7.518;2024-01-11T17:20:44;98297.16;;;-3.16
57468;BMP280;43311;51.196;7.518;2024-01-11T17:23:55;98331.63;;;-3.03
57468;BMP280;43311;51.196;7.518;2024-01-11T17:26:21;98324.75;;;-3.08
57468;BMP280;43311;51.196;7.518;2024-01-11T17:28:47;98326.91;;;-3.15
57468;BMP280;43311;51.196;7.518;2024-01-11T17:31:14;98332.53;;;-3.13
57468;BMP280;43311;51.196;7.518;2024-01-11T17:33:40;98305.63;;;-3.34
57468;BMP280;43311;51.196;7.518;2024-01-11T17:36:05;98308.72;;;-3.37
57468;BMP280;43311;51.196;7.518;2024-01-11T17:38:31;98293.69;;;-3.43
57468;BMP280;43311;51.196;7.518;2024-01-11T17:40:56;98313.91;;;-3.41
57468;BMP280;43311;51.196;7.518;2024-01-11T17:43:22;98326.16;;;-3.39
57468;BMP280;43311;51.196;7.518;2024-01-11T17:45:47;98296.50;;;-3.44
57468;BMP280;43311;51.196;7.518;2024-01-11T17:48:16;98308.81;;;-3.23
57468;BMP280;43311;51.196;7.518;2024-01-11T17:50:42;98301.88;;;-3.23
57468;BMP280;43311;51.196;7.518;2024-01-11T17:53:07;98320.53;;;-3.17
57468;BMP280;43311;51.196;7.518;2024-01-11T17:55:33;98326.63;;;-3.13
57468;BMP280;43311;51.196;7.518;2024-01-11T17:57:59;98327.63;;;-3.09
57468;BMP280;43311;51.196;7.518;2024-01-11T18:00:24;98309.66;;;-3.09
57468;BMP280;43311;51.196;7.518;2024-01-11T18:02:50;98302.38;;;-3.02
57468;BMP280;43311;51.196;7.518;2024-01-11T18:05:16;98319.41;;;-2.93
57468;BMP280;43311;51.196;7.518;2024-01-11T18:08:00;98306.13;;;-2.95
57468;BMP280;43311;51.196;7.518;2024-01-11T18:10:45;98300.06;;;-3.04
57468;BMP280;43311;51.196;7.518;2024-01-11T18:13:11;98294.81;;;-2.94
57468;BMP280;43311;51.196;7.518;2024-01-11T18:15:38;98295.44;;;-3.02
57468;BMP280;43311;51.196;7.518;2024-01-11T18:18:07;98319.03;;;-3.00
57468;BMP280;43311;51.196;7.518;2024-01-11T18:20:33;98312.72;;;-2.89
57468;BMP280;43311;51.196;7.518;2024-01-11T18:22:59;98304.72;;;-2.87
57468;BMP280;43311;51.196;7.518;2024-01-11T18:25:25;98303.63;;;-2.81
57468;BMP280;43311;51.196;7.518;2024-01-11T18:27:50;98320.94;;;-2.73
57468;BMP280;43311;51.196;7.518;2024-01-11T18:30:16;98304.78;;;-2.74
57468;BMP280;43311;51.196;7.518;2024-01-11T18:32:41;98302.13;;;-2.69
57468;BMP280;43311;51.196;7.518;2024-01-11T18:35:07;98292.03;;;-2.79
57468;BMP280;43311;51.196;7.518;2024-01-11T18:37:33;98319.50;;;-2.61
57468;BMP280;43311;51.196;7.518;2024-01-11T18:39:59;98302.63;;;-2.67
57468;BMP280;43311;51.196;7.518;2024-01-11T18:42:25;98323.91;;;-2.48
57468;BMP280;43311;51.196;7.518;2024-01-11T18:44:51;98312.13;;;-2.49
57468;BMP280;43311;51.196;7.518;2024-01-11T18:47:18;98309.69;;;-2.41
57468;BMP280;43311;51.196;7.518;2024-01-11T18:49:44;98293.25;;;-2.58
57468;BMP280;43311;51.196;7.518;2024-01-11T18:52:09;98317.81;;;-2.52
57468;BMP280;43311;51.196;7.518;2024-01-11T18:54:36;98291.03;;;-2.65
57468;BMP280;43311;51.196;7.518;2024-01-11T18:57:02;98297.66;;;-2.45
57468;BMP280;43311;51.196;7.518;2024-01-11T18:59:28;98278.41;;;-2.61
57468;BMP280;43311;51.196;7.518;2024-01-11T19:01:55;98281.22;;;-2.63
57468;BMP280;43311;51.196;7.518;2024-01-11T19:04:20;98303.94;;;-2.51
57468;BMP280;43311;51.196;7.518;2024-01-11T19:06:45;98308.44;;;-2.43
57468;BMP280;43311;51.196;7.518;2024-01-11T19:09:12;98307.97;;;-2.32
57468;BMP280;43311;51.196;7.518;2024-01-11T19:11:38;98307.84;;;-2.40
57468;BMP280;43311;51.196;7.518;2024-01-11T19:14:04;98324.00;;;-2.21
57468;BMP280;43311;51.196;7.518;2024-01-11T19:16:29;98294.06;;;-2.44
57468;BMP280;43311;51.196;7.518;2024-01-11T19:18:55;98283.38;;;-2.51
57468;BMP280;43311;51.196;7.518;2024-01-11T19:21:22;98289.13;;;-2.41
57468;BMP280;43311;51.196;7.518;2024-01-11T19:23:48;98305.53;;;-2.23
57468;BMP280;43311;51.196;7.518;2024-01-11T19:26:13;98287.63;;;-2.28
57468;BMP280;43311;51.196;7.518;2024-01-11T19:28:38;98287.63;;;-2.28
57468;BMP280;43311;51.196;7.518;2024-01-11T19:31:27;98279.81;;;-2.37
57468;BMP280;43311;51.196;7.518;2024-01-11T19:34:24;98290.84;;;-2.23
57468;BMP280;43311;51.196;7.518;2024-01-11T19:37:04;98272.94;;;-2.41
57468;BMP280;43311;51.196;7.518;2024-01-11T20:12:53;98287.22;;;-2.03
57468;BMP280;43311;51.196;7.518;2024-01-11T20:19:25;98304.34;;;-1.86
57468;BMP280;43311;51.196;7.518;2024-01-11T20:21:51;98322.53;;;-1.69
57468;BMP280;43311;51.196;7.518;2024-01-11T20:24:16;98325.59;;;-1.67
57468;BMP280;43311;51.196;7.518;2024-01-11T20:26:55;98300.72;;;-1.85
